createdAt,value
2018-03-25T00:01:57.120Z,30.57
2018-03-25T00:04:26.890Z,30.17
2018-03-25T00:06:55.807Z,38.03
2018-03-25T00:09:24.883Z,44.80
2018-03-25T00:11:53.842Z,24.27
2018-03-25T00:14:22.867Z,25.47
2018-03-25T00:16:52.715Z,33.83
2018-03-25T00:19:22.026Z,34.47
2018-03-25T00:21:51.118Z,16.63
2018-03-25T00:24:20.319Z,23.20
2018-03-25T00:26:49.347Z,22.73
2018-03-25T00:29:18.444Z,26.47
2018-03-25T00:31:47.444Z,34.17
2018-03-25T00:34:16.568Z,26.37
2018-03-25T00:36:46.271Z,28.30
2018-03-25T00:39:15.543Z,21.17
2018-03-25T00:41:44.536Z,35.30
2018-03-25T00:44:14.011Z,24.20
2018-03-25T00:46:43.011Z,30.00
2018-03-25T00:49:12.139Z,21.17
2018-03-25T00:51:41.207Z,31.37
2018-03-25T00:54:11.115Z,20.33
2018-03-25T00:56:40.211Z,29.13
2018-03-25T00:59:09.519Z,23.53
2018-03-25T01:01:38.538Z,21.10
2018-03-25T01:04:07.814Z,25.63
2018-03-25T01:06:36.811Z,25.73
2018-03-25T01:09:06.175Z,27.60
2018-03-25T01:11:35.193Z,22.77
2018-03-25T01:14:04.267Z,26.17
2018-03-25T01:16:33.283Z,25.37
2018-03-25T01:19:03.218Z,14.67
2018-03-25T01:21:32.810Z,23.00
2018-03-25T01:24:01.923Z,20.93
2018-03-25T01:26:30.900Z,25.53
2018-03-25T01:28:59.907Z,19.27
2018-03-25T01:31:28.887Z,26.80
2018-03-25T01:33:57.994Z,21.67
2018-03-25T01:36:26.878Z,31.33
2018-03-25T01:38:55.982Z,20.00
2018-03-25T01:41:24.866Z,25.20
2018-03-25T01:43:54.073Z,24.80
2018-03-25T01:46:23.546Z,19.77
2018-03-25T01:48:52.811Z,25.73
2018-03-25T01:51:22.089Z,30.73
2018-03-25T01:53:51.794Z,27.63
2018-03-25T01:56:21.262Z,30.13
2018-03-25T01:58:51.183Z,24.23
2018-03-25T02:01:21.161Z,33.73
2018-03-25T02:03:50.438Z,30.80
2018-03-25T02:06:19.434Z,26.00
2018-03-25T02:08:48.535Z,28.00
2018-03-25T02:11:17.555Z,29.00
2018-03-25T02:13:46.863Z,34.30
2018-03-25T02:16:15.850Z,23.50
2018-03-25T02:18:44.987Z,23.83
2018-03-25T02:21:14.867Z,18.90
2018-03-25T02:23:44.035Z,17.20
2018-03-25T02:26:13.834Z,19.63
2018-03-25T02:28:43.254Z,20.00
2018-03-25T02:31:12.379Z,28.97
2018-03-25T02:33:41.659Z,27.33
2018-03-25T02:36:10.756Z,18.30
2018-03-25T02:38:40.883Z,26.00
2018-03-25T02:41:09.991Z,29.10
2018-03-25T02:43:39.268Z,25.23
2018-03-25T02:46:08.366Z,20.93
2018-03-25T02:48:39.159Z,28.13
2018-03-25T02:51:09.048Z,18.87
2018-03-25T02:53:38.320Z,30.83
2018-03-25T02:56:07.411Z,13.93
2018-03-25T02:58:36.847Z,21.33
2018-03-25T03:01:05.812Z,20.77
2018-03-25T03:03:35.115Z,20.07
2018-03-25T03:06:04.216Z,27.00
2018-03-25T03:08:34.237Z,24.60
2018-03-25T03:11:03.875Z,32.60
2018-03-25T03:13:33.074Z,24.30
2018-03-25T03:16:02.982Z,22.90
2018-03-25T03:18:32.263Z,29.77
2018-03-25T03:21:02.158Z,27.87
2018-03-25T03:23:31.471Z,25.10
2018-03-25T03:26:00.598Z,22.97
2018-03-25T03:28:29.571Z,31.00
2018-03-25T03:30:58.668Z,28.67
2018-03-25T03:33:28.743Z,26.20
2018-03-25T03:35:57.879Z,22.80
2018-03-25T03:38:27.183Z,22.43
2018-03-25T03:40:56.306Z,35.70
2018-03-25T03:43:25.508Z,24.57
2018-03-25T03:45:54.508Z,37.67
2018-03-25T03:48:23.763Z,35.50
2018-03-25T03:50:53.798Z,31.23
2018-03-25T03:53:23.030Z,30.93
2018-03-25T03:55:52.034Z,23.90
2018-03-25T03:58:21.171Z,39.93
2018-03-25T04:00:51.000Z,52.87
2018-03-25T04:03:20.204Z,47.33
2018-03-25T04:05:49.195Z,46.60
2018-03-25T04:08:18.498Z,40.97
2018-03-25T04:10:48.411Z,39.03
2018-03-25T04:13:18.291Z,44.83
2018-03-25T04:15:47.207Z,60.77
2018-03-25T04:18:16.317Z,42.57
2018-03-25T04:20:46.055Z,49.63
2018-03-25T04:23:15.335Z,39.40
2018-03-25T04:25:44.327Z,35.40
2018-03-25T04:28:13.662Z,38.70
2018-03-25T04:30:42.511Z,39.40
2018-03-25T04:33:12.568Z,34.23
2018-03-25T04:35:41.559Z,35.90
2018-03-25T04:38:10.758Z,33.23
2018-03-25T04:40:39.756Z,33.03
2018-03-25T04:43:09.027Z,30.13
2018-03-25T04:45:38.059Z,48.13
2018-03-25T04:48:07.259Z,29.87
2018-03-25T04:50:36.250Z,51.37
2018-03-25T04:53:05.383Z,40.67
2018-03-25T04:55:34.395Z,34.20
2018-03-25T04:58:03.463Z,34.77
2018-03-25T05:00:32.395Z,40.37
2018-03-25T05:03:02.424Z,52.27
2018-03-25T05:05:32.114Z,36.27
2018-03-25T05:08:01.127Z,34.87
2018-03-25T05:10:30.103Z,42.50
2018-03-25T05:12:59.075Z,39.77
2018-03-25T05:15:28.959Z,28.77
2018-03-25T05:17:58.230Z,31.70
2018-03-25T05:20:27.218Z,26.67
2018-03-25T05:22:56.453Z,32.00
2018-03-25T05:25:25.415Z,27.83
2018-03-25T05:27:54.579Z,31.10
2018-03-25T05:30:23.511Z,32.20
2018-03-25T05:32:52.671Z,31.07
2018-03-25T05:35:21.630Z,28.53
2018-03-25T05:37:50.736Z,29.10
2018-03-25T05:40:19.722Z,35.37
2018-03-25T05:42:48.851Z,26.37
2018-03-25T05:45:17.771Z,27.67
2018-03-25T05:47:46.878Z,36.17
2018-03-25T05:50:15.759Z,23.53
2018-03-25T05:52:44.862Z,27.60
2018-03-25T05:55:13.955Z,26.63
2018-03-25T05:57:42.960Z,25.47
2018-03-25T06:00:11.938Z,30.70
2018-03-25T06:02:40.947Z,29.07
2018-03-25T06:05:09.934Z,29.23
2018-03-25T06:07:38.998Z,36.93
2018-03-25T06:10:07.919Z,45.13
2018-03-25T06:12:38.527Z,34.70
2018-03-25T06:15:07.491Z,31.47
2018-03-25T06:17:37.067Z,46.93
2018-03-25T06:20:06.530Z,37.87
2018-03-25T06:22:35.798Z,34.10
2018-03-25T06:25:04.867Z,40.10
2018-03-25T06:27:34.067Z,37.43
2018-03-25T06:30:03.163Z,40.27
2018-03-25T06:32:32.299Z,55.70
2018-03-25T06:35:01.286Z,33.70
2018-03-25T06:37:30.389Z,40.50
2018-03-25T06:39:59.383Z,40.07
2018-03-25T06:42:28.406Z,33.80
2018-03-25T06:44:57.371Z,35.63
2018-03-25T06:47:27.279Z,28.07
2018-03-25T06:49:56.379Z,31.00
2018-03-25T06:52:25.550Z,39.30
2018-03-25T06:54:54.654Z,43.83
2018-03-25T06:57:24.506Z,41.40
2018-03-25T06:59:53.831Z,40.10
2018-03-25T07:02:23.639Z,44.63
2018-03-25T07:04:53.487Z,36.53
2018-03-25T07:07:22.795Z,33.47
2018-03-25T07:09:51.786Z,38.40
2018-03-25T07:12:21.095Z,32.83
2018-03-25T07:14:50.114Z,39.27
2018-03-25T07:17:19.180Z,39.90
2018-03-25T07:19:48.207Z,37.40
2018-03-25T07:22:17.304Z,41.97
2018-03-25T07:24:47.052Z,37.60
2018-03-25T07:27:17.045Z,43.60
2018-03-25T07:29:46.026Z,47.90
2018-03-25T07:32:15.154Z,37.10
2018-03-25T07:34:45.035Z,43.57
2018-03-25T07:37:14.211Z,40.60
2018-03-25T07:39:43.808Z,46.33
2018-03-25T07:42:13.205Z,31.07
2018-03-25T07:44:42.415Z,28.17
2018-03-25T07:47:13.080Z,34.43
2018-03-25T07:49:42.175Z,27.03
2018-03-25T07:52:11.978Z,29.70
2018-03-25T07:54:41.857Z,43.90
2018-03-25T07:57:11.667Z,46.93
2018-03-25T07:59:41.608Z,53.87
2018-03-25T08:02:10.849Z,31.47
2018-03-25T08:04:39.903Z,41.00
2018-03-25T08:07:08.899Z,35.10
2018-03-25T08:09:37.927Z,32.50
2018-03-25T08:12:07.122Z,38.90
2018-03-25T08:14:36.194Z,35.83
2018-03-25T08:17:06.102Z,40.17
2018-03-25T08:19:35.199Z,34.13
2018-03-25T08:22:04.426Z,34.57
2018-03-25T08:24:33.423Z,34.53
2018-03-25T08:27:02.703Z,35.77
2018-03-25T08:29:31.695Z,35.93
2018-03-25T08:32:00.926Z,39.63
2018-03-25T08:34:29.921Z,42.47
2018-03-25T08:36:59.047Z,37.33
2018-03-25T08:39:28.922Z,37.67
2018-03-25T08:41:58.338Z,45.13
2018-03-25T08:44:27.435Z,33.87
2018-03-25T08:46:56.558Z,31.57
2018-03-25T08:49:25.529Z,33.83
2018-03-25T08:51:54.475Z,36.93
2018-03-25T08:54:23.412Z,28.37
2018-03-25T08:56:52.539Z,31.20
2018-03-25T08:59:22.319Z,35.20
2018-03-25T09:01:51.819Z,29.00
2018-03-25T09:04:20.814Z,27.00
2018-03-25T09:06:49.987Z,33.37
2018-03-25T09:09:19.007Z,38.67
2018-03-25T09:11:48.179Z,36.20
2018-03-25T09:14:17.099Z,44.80
2018-03-25T09:16:46.378Z,44.83
2018-03-25T09:19:16.247Z,44.13
2018-03-25T09:21:45.543Z,35.77
2018-03-25T09:24:14.612Z,48.53
2018-03-25T09:26:43.711Z,47.13
2018-03-25T09:29:12.775Z,32.90
2018-03-25T09:31:41.983Z,47.37
2018-03-25T09:34:11.574Z,41.53
2018-03-25T09:36:41.606Z,39.73
2018-03-25T09:39:10.598Z,36.17
2018-03-25T09:41:40.784Z,38.10
2018-03-25T09:44:09.774Z,34.97
2018-03-25T09:46:39.015Z,45.73
2018-03-25T09:49:08.111Z,40.10
2018-03-25T09:51:37.239Z,38.13
2018-03-25T09:54:06.343Z,38.07
2018-03-25T09:56:35.515Z,37.93
2018-03-25T09:59:04.707Z,30.93
2018-03-25T10:01:35.704Z,44.93
2018-03-25T10:04:05.215Z,38.07
2018-03-25T10:06:34.484Z,30.43
2018-03-25T10:09:03.659Z,44.67
2018-03-25T10:11:32.661Z,42.40
2018-03-25T10:14:01.648Z,39.17
2018-03-25T10:16:30.880Z,34.27
2018-03-25T10:18:59.839Z,38.83
2018-03-25T10:21:29.098Z,45.63
2018-03-25T10:23:58.062Z,46.53
2018-03-25T10:26:27.195Z,27.97
2018-03-25T10:28:57.073Z,42.80
2018-03-25T10:31:26.247Z,38.80
2018-03-25T10:33:55.845Z,43.03
2018-03-25T10:36:24.849Z,40.23
2018-03-25T10:38:54.687Z,52.00
2018-03-25T10:41:23.863Z,37.53
2018-03-25T10:43:52.964Z,31.73
2018-03-25T10:46:22.870Z,39.03
2018-03-25T10:48:52.031Z,63.93
2018-03-25T10:51:21.300Z,30.53
2018-03-25T10:53:50.395Z,35.83
2018-03-25T10:56:19.570Z,32.43
2018-03-25T10:58:48.667Z,50.83
2018-03-25T11:01:18.679Z,38.60
2018-03-25T11:03:47.775Z,45.37
2018-03-25T11:06:17.287Z,44.47
2018-03-25T11:08:46.383Z,40.60
2018-03-25T11:11:15.515Z,37.47
2018-03-25T11:13:45.395Z,30.07
2018-03-25T11:16:14.699Z,40.43
2018-03-25T11:18:43.695Z,32.53
2018-03-25T11:21:13.003Z,38.43
2018-03-25T11:23:42.024Z,34.40
2018-03-25T11:26:11.224Z,35.70
2018-03-25T11:28:40.215Z,36.60
2018-03-25T11:31:09.349Z,28.43
2018-03-25T11:33:39.236Z,33.97
2018-03-25T11:36:08.499Z,28.87
2018-03-25T11:38:37.599Z,26.97
2018-03-25T11:41:06.890Z,27.93
2018-03-25T11:43:35.887Z,41.90
2018-03-25T11:46:05.154Z,43.40
2018-03-25T11:48:35.035Z,29.03
2018-03-25T11:51:04.311Z,37.70
2018-03-25T11:53:33.412Z,32.07
2018-03-25T11:56:02.539Z,24.47
2018-03-25T11:58:31.531Z,43.73
2018-03-25T12:01:00.527Z,34.97
2018-03-25T12:03:29.514Z,34.03
2018-03-25T12:05:58.647Z,44.93
2018-03-25T12:08:27.668Z,35.00
2018-03-25T12:10:56.735Z,27.60
2018-03-25T12:13:25.758Z,34.97
2018-03-25T12:15:54.863Z,31.27
2018-03-25T12:18:23.747Z,32.13
2018-03-25T12:20:52.855Z,29.07
2018-03-25T12:23:22.699Z,35.57
2018-03-25T12:25:51.767Z,25.60
2018-03-25T12:28:20.863Z,31.53
2018-03-25T12:30:50.866Z,26.80
2018-03-25T12:33:20.107Z,26.60
2018-03-25T12:35:49.383Z,32.87
2018-03-25T12:38:19.459Z,24.50
2018-03-25T12:40:48.727Z,27.00
2018-03-25T12:43:17.799Z,29.33
2018-03-25T12:45:47.978Z,27.70
2018-03-25T12:48:17.114Z,28.07
2018-03-25T12:50:46.895Z,29.80
2018-03-25T12:53:15.810Z,24.63
2018-03-25T12:55:45.938Z,33.40
2018-03-25T12:58:15.143Z,32.40
2018-03-25T13:00:44.035Z,24.70
2018-03-25T13:03:13.129Z,21.67
2018-03-25T13:05:42.262Z,31.67
2018-03-25T13:08:11.255Z,26.80
2018-03-25T13:10:40.427Z,27.50
2018-03-25T13:13:09.451Z,34.27
2018-03-25T13:15:38.579Z,33.80
2018-03-25T13:18:08.356Z,38.87
2018-03-25T13:20:37.530Z,24.10
2018-03-25T13:23:13.125Z,23.77
2018-03-25T13:25:44.091Z,30.20
2018-03-25T13:28:13.931Z,24.23
2018-03-25T13:30:43.173Z,26.33
2018-03-25T13:33:12.024Z,27.47
2018-03-25T13:35:41.263Z,28.43
2018-03-25T13:38:10.318Z,22.20
2018-03-25T13:40:39.584Z,22.70
2018-03-25T13:43:09.872Z,19.13
2018-03-25T13:45:38.970Z,24.60
2018-03-25T13:48:07.967Z,25.33
2018-03-25T13:50:37.095Z,25.57
2018-03-25T13:53:06.059Z,26.60
2018-03-25T13:55:35.082Z,21.67
2018-03-25T13:58:04.049Z,23.90
2018-03-25T14:00:33.181Z,25.20
2018-03-25T14:03:02.139Z,22.80
2018-03-25T14:05:31.267Z,24.13
2018-03-25T14:08:00.183Z,20.47
2018-03-25T14:10:29.442Z,29.63
2018-03-25T14:12:58.468Z,23.60
2018-03-25T14:15:28.055Z,29.23
2018-03-25T14:17:57.223Z,21.33
2018-03-25T14:20:26.607Z,21.60
2018-03-25T14:22:55.707Z,26.53
2018-03-25T14:25:25.814Z,25.97
2018-03-25T14:27:54.938Z,18.23
2018-03-25T14:30:24.214Z,34.57
2018-03-25T14:32:53.316Z,22.10
2018-03-25T14:35:22.443Z,22.57
2018-03-25T14:37:51.440Z,21.87
2018-03-25T14:40:20.571Z,24.90
2018-03-25T14:42:50.346Z,24.60
2018-03-25T14:45:19.618Z,23.47
2018-03-25T14:47:49.415Z,32.13
2018-03-25T14:50:18.691Z,20.57
2018-03-25T14:52:48.548Z,21.40
2018-03-25T14:55:17.779Z,23.53
2018-03-25T14:57:46.671Z,20.70
2018-03-25T15:00:15.799Z,24.03
2018-03-25T15:02:44.802Z,26.90
2018-03-25T15:05:13.887Z,22.77
2018-03-25T15:07:42.855Z,18.67
2018-03-25T15:10:11.915Z,25.27
2018-03-25T15:12:40.795Z,23.90
2018-03-25T15:15:10.927Z,23.80
2018-03-25T15:17:40.903Z,25.97
2018-03-25T15:20:10.144Z,16.73
2018-03-25T15:22:39.266Z,27.27
2018-03-25T15:25:08.367Z,19.50
2018-03-25T15:27:37.478Z,29.83
2018-03-25T15:30:06.638Z,25.60
2018-03-25T15:32:35.735Z,26.53
2018-03-25T15:35:04.727Z,23.47
2018-03-25T15:37:33.823Z,18.83
2018-03-25T15:40:02.987Z,29.00
2018-03-25T15:42:31.948Z,22.90
2018-03-25T15:45:01.153Z,18.50
2018-03-25T15:47:30.142Z,25.37
2018-03-25T15:49:59.266Z,17.70
2018-03-25T15:52:28.187Z,19.77
2018-03-25T15:54:57.294Z,18.37
2018-03-25T15:57:27.760Z,16.77
2018-03-25T15:59:56.791Z,18.93
2018-03-25T16:02:26.549Z,23.37
2018-03-25T16:04:55.735Z,23.03
2018-03-25T16:07:24.743Z,15.73
2018-03-25T16:09:54.023Z,15.10
2018-03-25T16:12:23.063Z,15.13
2018-03-25T16:14:52.259Z,24.80
2018-03-25T16:17:22.447Z,20.03
2018-03-25T16:19:51.679Z,15.53
2018-03-25T16:22:20.643Z,18.50
2018-03-25T16:24:49.775Z,23.27
2018-03-25T16:27:18.767Z,13.17
2018-03-25T16:29:47.890Z,21.07
2018-03-25T16:32:17.771Z,21.67
2018-03-25T16:34:46.972Z,21.87
2018-03-25T16:37:16.043Z,18.27
2018-03-25T16:39:45.343Z,16.87
2018-03-25T16:42:14.438Z,16.60
2018-03-25T16:44:44.255Z,21.47
2018-03-25T16:47:13.447Z,17.93
2018-03-25T16:49:42.779Z,13.50
2018-03-25T16:52:11.956Z,14.33
2018-03-25T16:54:41.182Z,17.23
2018-03-25T16:57:10.190Z,20.20
2018-03-25T16:59:40.296Z,22.17
2018-03-25T17:02:09.294Z,18.13
2018-03-25T17:04:38.567Z,29.17
2018-03-25T17:07:07.662Z,19.37
2018-03-25T17:09:36.794Z,14.40
2018-03-25T17:12:05.651Z,11.97
2018-03-25T17:14:35.627Z,11.00
2018-03-25T17:17:04.618Z,8.23
2018-03-25T17:19:34.096Z,17.87
2018-03-25T17:22:03.167Z,13.83
2018-03-25T17:24:32.875Z,15.43
2018-03-25T17:27:02.163Z,10.73
2018-03-25T17:29:31.579Z,15.80
2018-03-25T17:32:00.674Z,13.33
2018-03-25T17:34:29.983Z,12.43
2018-03-25T17:36:59.079Z,8.90
2018-03-25T17:39:29.155Z,17.67
2018-03-25T17:41:58.298Z,17.87
2018-03-25T17:44:27.627Z,12.33
2018-03-25T17:46:56.594Z,15.83
2018-03-25T17:49:25.995Z,12.00
2018-03-25T17:51:54.994Z,16.57
2018-03-25T17:54:24.909Z,8.20
2018-03-25T17:56:54.547Z,15.30
2018-03-25T17:59:23.575Z,13.40
2018-03-25T18:01:52.545Z,12.83
2018-03-25T18:04:21.672Z,14.60
2018-03-25T18:06:50.639Z,11.43
2018-03-25T18:09:19.763Z,14.50
2018-03-25T18:11:48.619Z,11.83
2018-03-25T18:14:17.827Z,12.30
2018-03-25T18:16:46.811Z,14.00
2018-03-25T18:19:15.996Z,17.23
2018-03-25T18:21:45.111Z,18.47
2018-03-25T18:24:14.673Z,14.57
2018-03-25T18:26:43.807Z,14.40
2018-03-25T18:29:12.979Z,18.00
2018-03-25T18:31:42.880Z,13.90
2018-03-25T18:34:12.224Z,11.77
2018-03-25T18:36:41.319Z,21.50
2018-03-25T18:39:10.495Z,23.37
2018-03-25T18:41:39.595Z,24.87
2018-03-25T18:44:09.568Z,25.53
2018-03-25T18:46:38.767Z,33.40
2018-03-25T18:49:08.687Z,19.73
2018-03-25T18:51:38.535Z,25.73
2018-03-25T18:54:07.843Z,32.23
2018-03-25T18:56:36.835Z,28.93
2018-03-25T18:59:06.135Z,31.00
2018-03-25T19:01:35.162Z,24.87
2018-03-25T19:04:04.291Z,25.13
2018-03-25T19:06:33.255Z,22.10
2018-03-25T19:09:02.351Z,22.77
2018-03-25T19:11:31.446Z,22.27
2018-03-25T19:14:00.307Z,28.90
2018-03-25T19:16:29.334Z,48.20
2018-03-25T19:18:58.431Z,30.40
2018-03-25T19:21:27.428Z,23.37
2018-03-25T19:23:56.803Z,18.23
2018-03-25T19:26:25.981Z,34.50
2018-03-25T19:28:55.256Z,21.87
2018-03-25T19:31:24.280Z,23.17
2018-03-25T19:33:53.697Z,29.43
2018-03-25T19:36:23.563Z,31.87
2018-03-25T19:38:52.602Z,24.13
2018-03-25T19:41:21.894Z,20.80
2018-03-25T19:43:51.865Z,19.30
2018-03-25T19:46:20.850Z,24.13
2018-03-25T19:48:50.079Z,29.60
2018-03-25T19:51:20.037Z,34.07
2018-03-25T19:53:49.367Z,37.27
2018-03-25T19:56:18.359Z,28.57
2018-03-25T19:58:47.663Z,25.67
2018-03-25T20:01:16.660Z,30.87
2018-03-25T20:03:45.936Z,29.40
2018-03-25T20:06:15.035Z,27.70
2018-03-25T20:08:45.110Z,25.70
2018-03-25T20:11:14.244Z,39.13
2018-03-25T20:13:43.479Z,30.00
2018-03-25T20:16:12.439Z,43.77
2018-03-25T20:18:41.744Z,37.13
2018-03-25T20:21:10.734Z,35.70
2018-03-25T20:23:39.977Z,26.97
2018-03-25T20:26:09.175Z,20.17
2018-03-25T20:28:37.987Z,34.67
2018-03-25T20:31:07.867Z,39.70
2018-03-25T20:33:36.963Z,38.23
2018-03-25T20:36:05.968Z,23.90
2018-03-25T20:38:35.335Z,34.03
2018-03-25T20:41:04.335Z,27.47
2018-03-25T20:43:33.565Z,31.03
2018-03-25T20:46:02.455Z,27.90
2018-03-25T20:48:32.438Z,24.30
2018-03-25T20:51:01.564Z,30.03
2018-03-25T20:53:30.659Z,34.67
2018-03-25T20:56:00.595Z,25.37
2018-03-25T20:58:30.075Z,32.80
2018-03-25T21:00:59.178Z,26.47
2018-03-25T21:03:28.384Z,49.57
2018-03-25T21:05:57.479Z,42.53
2018-03-25T21:08:26.582Z,27.30
2018-03-25T21:10:55.643Z,28.03
2018-03-25T21:13:25.728Z,31.00
2018-03-25T21:15:54.820Z,33.87
2018-03-25T21:18:24.634Z,45.30
2018-03-25T21:20:54.482Z,31.87
2018-03-25T21:23:23.791Z,22.40
2018-03-25T21:25:52.787Z,26.97
2018-03-25T21:28:21.986Z,15.57
2018-03-25T21:30:50.879Z,31.13
2018-03-25T21:33:20.106Z,35.43
2018-03-25T21:35:49.175Z,24.17
2018-03-25T21:38:18.943Z,23.70
2018-03-25T21:40:48.078Z,29.43
2018-03-25T21:43:17.412Z,26.10
2018-03-25T21:45:46.407Z,27.03
2018-03-25T21:48:15.684Z,31.97
2018-03-25T21:50:44.683Z,18.50
2018-03-25T21:53:13.875Z,23.73
2018-03-25T21:55:43.007Z,20.33
2018-03-25T21:58:12.134Z,24.27
2018-03-25T22:00:41.097Z,28.87
2018-03-25T22:03:10.322Z,23.73
2018-03-25T22:05:40.175Z,30.80
2018-03-25T22:08:09.742Z,28.47
2018-03-25T22:10:38.783Z,31.60
2018-03-25T22:13:08.246Z,27.27
2018-03-25T22:15:38.098Z,24.00
2018-03-25T22:18:07.226Z,25.27
2018-03-25T22:20:36.195Z,25.93
2018-03-25T22:23:05.523Z,19.73
2018-03-25T22:25:35.139Z,34.77
2018-03-25T22:28:04.262Z,32.50
2018-03-25T22:30:33.388Z,26.67
2018-03-25T22:33:03.419Z,31.00
2018-03-25T22:35:33.394Z,31.73
2018-03-25T22:38:02.663Z,15.03
2018-03-25T22:40:31.762Z,24.77
2018-03-25T22:43:00.939Z,23.33
2018-03-25T22:45:30.526Z,33.97
2018-03-25T22:47:59.655Z,22.93
2018-03-25T22:50:28.519Z,29.50
2018-03-25T22:52:57.830Z,31.50
2018-03-25T22:55:26.851Z,30.67
2018-03-25T22:57:56.155Z,29.90
2018-03-25T23:00:25.263Z,38.00
2018-03-25T23:02:54.558Z,35.23
2018-03-25T23:05:24.342Z,28.47
2018-03-25T23:07:53.545Z,34.30
2018-03-25T23:10:23.587Z,37.27
2018-03-25T23:12:52.759Z,28.80
2018-03-25T23:15:22.092Z,24.23
2018-03-25T23:17:51.191Z,28.83
2018-03-25T23:20:20.239Z,42.97
2018-03-25T23:22:49.346Z,36.93
2018-03-25T23:25:18.276Z,32.13
2018-03-25T23:27:47.403Z,28.03
2018-03-25T23:30:16.365Z,28.23
2018-03-25T23:32:45.635Z,28.20
2018-03-25T23:35:14.530Z,31.30
2018-03-25T23:37:43.691Z,25.53
2018-03-25T23:40:12.421Z,35.40
2018-03-25T23:42:41.717Z,33.33
2018-03-25T23:45:11.626Z,23.73
2018-03-25T23:47:40.728Z,24.37
2018-03-25T23:50:09.856Z,30.10
2018-03-25T23:52:39.022Z,27.60
2018-03-25T23:55:08.047Z,32.67
2018-03-25T23:57:37.322Z,39.17
